Time;durP1;ratioP1;P1;durP2;ratioP2;P2;SDS_P1;SDS_P2;PMS_P1;PMS_P2;Temp;Humidity;BMP_temperature;BMP_pressure;BME280_temperature;BME280_humidity;BME280_pressure;Samples;Min_cycle;Max_cycle;Signal;HPM_P1;HPM_P2
2023/07/01 00:00:07;;;;;;;10.63;6.22;;;16.50;99.90;;;;;;5001430;28;20404;-46
2023/07/01 00:02:41;;;;;;;8.98;6.40;;;16.40;99.90;;;;;;5004496;28;20042;-44
2023/07/01 00:05:09;;;;;;;8.45;6.00;;;16.30;99.90;;;;;;5000154;28;20042;-46
2023/07/01 00:07:36;;;;;;;9.48;6.60;;;16.30;99.90;;;;;;5003532;28;20046;-45
2023/07/01 00:10:04;;;;;;;8.80;6.57;;;16.20;99.90;;;;;;4997330;28;20054;-42
2023/07/01 00:12:31;;;;;;;9.52;6.63;;;16.10;99.90;;;;;;5002874;28;20119;-46
2023/07/01 00:14:58;;;;;;;10.93;7.45;;;16.10;99.90;;;;;;4995933;28;20415;-46
2023/07/01 00:17:26;;;;;;;10.15;7.22;;;16.10;99.90;;;;;;4995231;28;20096;-46
2023/07/01 00:19:53;;;;;;;8.93;6.85;;;16.00;99.90;;;;;;4999715;28;20046;-48
2023/07/01 00:22:20;;;;;;;10.13;7.35;;;16.00;99.90;;;;;;5006446;28;20093;-46
2023/07/01 00:24:48;;;;;;;10.95;7.20;;;16.00;99.90;;;;;;5003195;28;20145;-45
2023/07/01 00:27:15;;;;;;;9.10;6.60;;;15.90;99.90;;;;;;4990054;28;20055;-45
2023/07/01 00:29:42;;;;;;;10.45;7.13;;;15.90;99.90;;;;;;4992300;28;20046;-46
2023/07/01 00:32:10;;;;;;;9.73;6.70;;;15.90;99.90;;;;;;5006886;28;20430;-47
2023/07/01 00:34:37;;;;;;;10.20;6.97;;;15.80;99.90;;;;;;4998394;28;20119;-44
2023/07/01 00:37:04;;;;;;;9.20;7.05;;;15.90;99.90;;;;;;5011302;28;20117;-47
2023/07/01 00:39:32;;;;;;;11.82;7.20;;;15.80;99.90;;;;;;4989179;28;20042;-44
2023/07/01 00:42:00;;;;;;;11.05;6.28;;;15.80;99.90;;;;;;5010202;28;20046;-48
2023/07/01 00:44:27;;;;;;;10.13;7.15;;;15.80;99.90;;;;;;4988583;28;20042;-47
2023/07/01 00:46:54;;;;;;;11.50;7.55;;;15.80;99.90;;;;;;5000178;28;20057;-46
2023/07/01 00:49:22;;;;;;;9.32;6.70;;;15.70;99.90;;;;;;5005358;28;20404;-49
2023/07/01 00:51:50;;;;;;;9.25;6.45;;;15.70;99.90;;;;;;4995164;28;20084;-46
2023/07/01 00:54:17;;;;;;;9.25;7.05;;;15.70;99.90;;;;;;5010319;28;20140;-46
2023/07/01 00:56:44;;;;;;;9.40;6.95;;;15.70;99.90;;;;;;5005569;28;20046;-45
2023/07/01 00:59:12;;;;;;;11.52;7.25;;;15.70;99.90;;;;;;5012552;28;20050;-45
2023/07/01 01:01:43;;;;;;;11.30;6.07;;;15.70;99.90;;;;;;4975318;28;20514;-44
2023/07/01 01:04:16;;;;;;;9.55;6.18;;;15.70;99.90;;;;;;4991646;28;20097;-48
2023/07/01 01:06:51;;;;;;;10.65;7.05;;;15.70;99.90;;;;;;4988903;28;20054;-46
2023/07/01 01:09:30;;;;;;;13.93;8.10;;;15.70;99.90;;;;;;4994496;28;20054;-46
2023/07/01 01:11:59;;;;;;;10.57;6.93;;;15.70;99.90;;;;;;4987364;28;20070;-47
2023/07/01 01:14:28;;;;;;;9.23;6.40;;;15.70;99.90;;;;;;4998197;28;20128;-47
2023/07/01 01:16:57;;;;;;;10.13;6.80;;;15.70;99.90;;;;;;5011931;28;20046;-48
2023/07/01 01:19:36;;;;;;;10.27;7.10;;;15.70;99.90;;;;;;5003151;28;20439;-44
2023/07/01 01:22:30;;;;;;;12.35;8.38;;;15.80;99.90;;;;;;5008558;28;20426;-44
2023/07/01 01:25:08;;;;;;;13.15;8.82;;;15.80;99.90;;;;;;5010188;28;20070;-47
2023/07/01 01:27:42;;;;;;;13.00;9.43;;;15.80;99.90;;;;;;5014332;28;20042;-45
2023/07/01 01:30:09;;;;;;;11.65;8.38;;;15.90;99.90;;;;;;4998761;28;20050;-46
2023/07/01 01:32:38;;;;;;;11.63;8.13;;;16.00;99.90;;;;;;5014564;28;20068;-43
2023/07/01 01:35:06;;;;;;;9.60;7.10;;;16.00;99.90;;;;;;5011225;28;20543;-45
2023/07/01 01:38:04;;;;;;;10.50;6.88;;;16.10;99.90;;;;;;5013599;28;20042;-47
2023/07/01 01:40:47;;;;;;;10.45;7.60;;;16.20;99.90;;;;;;4992651;28;20526;-44
2023/07/01 01:43:51;;;;;;;10.02;6.78;;;16.30;99.90;;;;;;5011363;28;20116;-46
2023/07/01 01:46:20;;;;;;;9.20;6.88;;;16.30;99.90;;;;;;5011073;28;20046;-45
2023/07/01 01:48:47;;;;;;;10.40;6.55;;;16.40;99.90;;;;;;5006711;28;20046;-44
2023/07/01 01:51:16;;;;;;;9.05;6.60;;;16.40;99.90;;;;;;5002870;28;20050;-43
2023/07/01 01:53:45;;;;;;;10.70;7.00;;;16.50;99.90;;;;;;5006809;28;20054;-45
2023/07/01 01:56:13;;;;;;;12.13;7.35;;;16.50;99.90;;;;;;5011867;28;20045;-44
2023/07/01 01:58:40;;;;;;;9.63;6.57;;;16.50;99.90;;;;;;4978409;28;20454;-45
2023/07/01 02:01:08;;;;;;;9.30;6.60;;;16.50;99.90;;;;;;4986390;28;20101;-44
2023/07/01 02:03:35;;;;;;;11.50;7.22;;;16.40;99.90;;;;;;4982036;28;20140;-43
2023/07/01 02:06:02;;;;;;;9.60;6.38;;;16.50;99.90;;;;;;4990302;28;20061;-48
2023/07/01 02:08:30;;;;;;;9.50;6.80;;;16.50;99.90;;;;;;5008104;28;20056;-47
2023/07/01 02:10:57;;;;;;;10.00;6.38;;;16.50;99.90;;;;;;5007015;28;20061;-47
2023/07/01 02:13:25;;;;;;;9.25;6.50;;;16.50;99.90;;;;;;4992480;28;20133;-48
2023/07/01 02:15:53;;;;;;;9.25;6.65;;;16.60;99.90;;;;;;4989529;28;20541;-45
2023/07/01 02:18:20;;;;;;;9.00;6.57;;;16.60;99.90;;;;;;5007521;28;20046;-46
2023/07/01 02:20:47;;;;;;;7.88;6.15;;;16.60;99.90;;;;;;4987624;28;20600;-46
2023/07/01 02:23:16;;;;;;;9.75;6.90;;;16.60;99.90;;;;;;4999939;28;20064;-44
2023/07/01 02:25:43;;;;;;;12.93;6.88;;;16.60;99.90;;;;;;4992068;28;20482;-45
2023/07/01 02:28:10;;;;;;;8.52;6.13;;;16.60;99.90;;;;;;4995854;28;20046;-47
2023/07/01 02:30:38;;;;;;;10.45;6.15;;;16.70;99.90;;;;;;4975523;28;20081;-48
2023/07/01 02:33:05;;;;;;;9.10;6.43;;;16.60;99.90;;;;;;4985979;28;20058;-47
2023/07/01 02:35:32;;;;;;;9.63;6.68;;;16.70;99.90;;;;;;4975758;28;20092;-44
2023/07/01 02:37:59;;;;;;;8.98;6.90;;;16.70;99.90;;;;;;5003786;28;20050;-46
2023/07/01 02:40:27;;;;;;;11.63;7.78;;;16.70;99.90;;;;;;4993529;28;20409;-47
2023/07/01 02:42:54;;;;;;;13.00;9.77;;;16.70;99.90;;;;;;4984246;28;20057;-46
2023/07/01 02:45:22;;;;;;;11.60;8.20;;;16.70;99.90;;;;;;5000610;28;20054;-46
2023/07/01 02:47:49;;;;;;;10.80;6.97;;;16.70;99.90;;;;;;4981709;28;20053;-43
2023/07/01 02:50:16;;;;;;;11.00;6.82;;;16.80;99.90;;;;;;4993508;28;21726;-45
2023/07/01 02:52:44;;;;;;;9.07;6.55;;;16.70;99.90;;;;;;4981247;28;20116;-45
2023/07/01 02:55:11;;;;;;;11.38;7.40;;;16.70;99.90;;;;;;4992186;28;20073;-48
2023/07/01 02:57:38;;;;;;;10.35;6.70;;;16.80;99.90;;;;;;5007895;28;20379;-44
2023/07/01 03:00:10;;;;;;;11.23;7.32;;;16.80;99.90;;;;;;5008522;28;20088;-41
2023/07/01 03:02:38;;;;;;;10.05;6.90;;;16.80;99.90;;;;;;4996853;28;20145;-46
2023/07/01 03:05:07;;;;;;;13.18;7.32;;;16.80;99.90;;;;;;5010657;28;20037;-45
2023/07/01 03:07:35;;;;;;;11.25;7.07;;;16.70;99.90;;;;;;4988743;28;20048;-45
2023/07/01 03:10:02;;;;;;;10.63;6.90;;;16.70;99.90;;;;;;4988849;28;20049;-42
2023/07/01 03:12:30;;;;;;;10.70;7.10;;;16.70;99.90;;;;;;4978503;28;20105;-43
2023/07/01 03:14:57;;;;;;;9.45;6.57;;;16.60;99.90;;;;;;4970541;28;20049;-45
2023/07/01 03:17:24;;;;;;;8.82;6.30;;;16.70;99.90;;;;;;5012143;28;20045;-48
2023/07/01 03:19:52;;;;;;;9.30;6.50;;;16.70;99.90;;;;;;4980597;28;20129;-43
2023/07/01 03:22:20;;;;;;;11.55;6.70;;;16.70;99.90;;;;;;4983008;28;20404;-45
2023/07/01 03:24:47;;;;;;;9.55;6.50;;;16.80;99.90;;;;;;5013810;28;20483;-47
2023/07/01 03:27:14;;;;;;;9.65;6.60;;;16.90;99.90;;;;;;5011973;28;20060;-45
2023/07/01 03:29:42;;;;;;;10.95;6.45;;;16.80;99.90;;;;;;4974912;28;20352;-48
2023/07/01 03:32:09;;;;;;;10.73;6.85;;;16.90;99.90;;;;;;5001496;28;20045;-46
2023/07/01 03:34:38;;;;;;;10.18;7.22;;;16.90;99.90;;;;;;5013758;28;20050;-45
2023/07/01 03:37:06;;;;;;;9.07;6.47;;;16.90;99.90;;;;;;5008170;28;20054;-44
2023/07/01 03:39:33;;;;;;;8.15;6.25;;;16.90;99.90;;;;;;4998185;28;20136;-45
2023/07/01 03:42:00;;;;;;;8.63;6.05;;;16.90;99.90;;;;;;5006447;28;20125;-44
2023/07/01 03:44:28;;;;;;;9.05;6.28;;;17.00;99.90;;;;;;5000039;28;20054;-47
2023/07/01 03:46:55;;;;;;;9.68;6.00;;;17.00;99.90;;;;;;5007647;28;20125;-48
2023/07/01 03:49:22;;;;;;;9.65;6.60;;;17.00;99.90;;;;;;5005956;28;20111;-48
2023/07/01 03:51:51;;;;;;;9.35;6.32;;;17.10;99.90;;;;;;5006800;28;20120;-45
2023/07/01 03:54:19;;;;;;;8.90;5.90;;;17.10;99.90;;;;;;5012110;28;20050;-45
2023/07/01 03:56:46;;;;;;;9.60;6.47;;;17.20;99.90;;;;;;5009829;28;20119;-47
2023/07/01 03:59:13;;;;;;;9.00;6.35;;;17.20;99.90;;;;;;5003831;28;20524;-44
2023/07/01 04:01:41;;;;;;;10.70;6.72;;;17.20;99.90;;;;;;5007394;28;20049;-45
2023/07/01 04:04:08;;;;;;;9.32;6.30;;;17.20;99.90;;;;;;5004675;28;20069;-47
2023/07/01 04:06:36;;;;;;;9.25;6.32;;;17.20;99.90;;;;;;5014355;28;20064;-47
2023/07/01 04:09:03;;;;;;;9.65;6.05;;;17.20;99.90;;;;;;5005506;28;20083;-47
2023/07/01 04:11:31;;;;;;;9.10;6.70;;;17.20;99.90;;;;;;5013356;28;20142;-47
2023/07/01 04:13:58;;;;;;;8.50;5.97;;;17.20;99.90;;;;;;4998124;28;20157;-46
2023/07/01 04:16:25;;;;;;;8.48;6.05;;;17.20;99.90;;;;;;5010402;28;20129;-42
2023/07/01 04:18:53;;;;;;;8.85;6.20;;;17.20;99.90;;;;;;4999868;28;20157;-47
2023/07/01 04:21:21;;;;;;;10.63;7.38;;;17.20;99.90;;;;;;5013286;28;20070;-44
2023/07/01 04:23:49;;;;;;;10.00;6.80;;;17.10;99.90;;;;;;5011018;28;20057;-46
2023/07/01 04:26:16;;;;;;;8.85;6.13;;;17.00;99.90;;;;;;4994841;28;20061;-44
2023/07/01 04:28:43;;;;;;;10.45;7.05;;;17.00;99.90;;;;;;4989615;28;20050;-44
2023/07/01 04:31:11;;;;;;;10.30;6.40;;;17.00;99.90;;;;;;5004136;28;20077;-46
2023/07/01 04:33:38;;;;;;;9.70;6.95;;;17.10;99.90;;;;;;5003556;28;20048;-47
2023/07/01 04:36:05;;;;;;;10.20;6.80;;;17.20;99.90;;;;;;5005025;28;20084;-47
2023/07/01 04:38:33;;;;;;;9.63;6.82;;;17.20;99.90;;;;;;5006302;28;20038;-46
2023/07/01 04:41:01;;;;;;;9.25;6.40;;;17.30;99.90;;;;;;5013059;28;20044;-46
2023/07/01 04:43:29;;;;;;;9.02;6.45;;;17.30;99.90;;;;;;5011051;28;20073;-44
2023/07/01 04:45:56;;;;;;;9.13;6.60;;;17.20;99.90;;;;;;5001443;28;20054;-43
2023/07/01 04:48:24;;;;;;;10.18;7.30;;;17.30;99.90;;;;;;5012796;28;20046;-46
2023/07/01 04:50:51;;;;;;;10.70;7.80;;;17.40;99.90;;;;;;4996963;28;20169;-44
2023/07/01 04:53:18;;;;;;;11.35;7.78;;;17.40;99.90;;;;;;5006694;28;20077;-46
2023/07/01 04:55:46;;;;;;;10.52;7.18;;;17.40;99.90;;;;;;5008386;28;20069;-47
2023/07/01 04:58:13;;;;;;;13.55;7.60;;;17.60;99.90;;;;;;4987148;28;20427;-46
2023/07/01 05:00:40;;;;;;;11.65;7.38;;;17.60;99.90;;;;;;5005288;28;20145;-48
2023/07/01 05:03:08;;;;;;;12.57;7.80;;;17.70;99.90;;;;;;5002092;28;20155;-45
2023/07/01 05:05:35;;;;;;;12.30;7.72;;;17.60;99.90;;;;;;5002410;28;20042;-50
2023/07/01 05:08:03;;;;;;;10.02;7.50;;;17.50;99.90;;;;;;5000135;28;20042;-43
2023/07/01 05:10:30;;;;;;;10.73;7.88;;;17.40;99.90;;;;;;5002570;28;20251;-46
2023/07/01 05:12:57;;;;;;;10.57;7.95;;;17.40;99.90;;;;;;5010488;28;20049;-47
2023/07/01 05:15:25;;;;;;;12.40;8.27;;;17.40;99.90;;;;;;4997271;28;20046;-46
2023/07/01 05:17:52;;;;;;;10.80;7.72;;;17.40;99.90;;;;;;5003671;28;20145;-47
2023/07/01 05:20:19;;;;;;;11.35;7.60;;;17.50;99.90;;;;;;5009771;28;20038;-46
2023/07/01 05:22:46;;;;;;;9.63;7.32;;;17.50;99.90;;;;;;5004131;28;20073;-46
2023/07/01 05:25:14;;;;;;;12.85;9.13;;;17.60;99.90;;;;;;5002401;28;20070;-47
2023/07/01 05:27:41;;;;;;;11.98;8.32;;;17.60;99.90;;;;;;5010684;28;20065;-46
2023/07/01 05:30:09;;;;;;;12.38;8.68;;;17.70;99.90;;;;;;5001195;28;20360;-46
2023/07/01 05:32:36;;;;;;;11.43;7.95;;;17.80;99.90;;;;;;5011146;28;20037;-48
2023/07/01 05:35:04;;;;;;;12.13;8.60;;;17.80;99.90;;;;;;5004338;28;20037;-45
2023/07/01 05:37:31;;;;;;;13.70;8.77;;;17.80;99.90;;;;;;5010807;28;20587;-46
2023/07/01 05:39:58;;;;;;;14.48;8.85;;;17.90;99.90;;;;;;5002200;28;20522;-45
2023/07/01 05:42:25;;;;;;;15.38;9.20;;;18.00;99.90;;;;;;5010794;28;20117;-46
2023/07/01 05:44:53;;;;;;;14.32;8.38;;;18.00;99.90;;;;;;4995156;28;20037;-45
2023/07/01 05:47:20;;;;;;;16.42;9.15;;;18.10;99.90;;;;;;5003533;28;20046;-45
2023/07/01 05:49:47;;;;;;;19.65;9.63;;;18.10;99.90;;;;;;5000761;28;20137;-47
2023/07/01 05:52:15;;;;;;;16.60;11.27;;;18.20;99.90;;;;;;5005420;28;20065;-43
2023/07/01 05:54:42;;;;;;;15.32;10.50;;;18.10;99.90;;;;;;4999452;28;20046;-47
2023/07/01 05:57:09;;;;;;;16.13;11.32;;;18.20;99.90;;;;;;4991653;28;20069;-47
2023/07/01 05:59:37;;;;;;;16.73;11.20;;;18.20;99.90;;;;;;5002914;28;20384;-45
2023/07/01 06:02:04;;;;;;;16.90;11.02;;;18.30;99.90;;;;;;4992331;28;20423;-47
2023/07/01 06:04:32;;;;;;;15.20;10.55;;;18.40;99.90;;;;;;5005679;28;20060;-45
2023/07/01 06:06:59;;;;;;;15.13;10.20;;;18.50;99.90;;;;;;5005347;28;20495;-45
2023/07/01 06:09:26;;;;;;;15.50;10.85;;;18.50;99.90;;;;;;4998856;28;20503;-44
2023/07/01 06:11:54;;;;;;;16.40;10.88;;;18.60;99.90;;;;;;4998312;28;20471;-43
2023/07/01 06:14:21;;;;;;;15.75;11.48;;;18.70;99.90;;;;;;5000778;28;20046;-48
2023/07/01 06:16:48;;;;;;;16.15;10.77;;;18.70;99.90;;;;;;5001899;28;20050;-45
2023/07/01 06:19:16;;;;;;;17.15;10.95;;;18.70;99.90;;;;;;5002560;28;20038;-46
2023/07/01 06:21:45;;;;;;;16.63;10.32;;;18.80;99.90;;;;;;5008032;28;20050;-45
2023/07/01 06:24:13;;;;;;;20.05;12.30;;;18.80;99.90;;;;;;5004212;28;20050;-45
2023/07/01 06:26:40;;;;;;;19.75;11.57;;;18.80;99.90;;;;;;5000887;28;20124;-45
2023/07/01 06:29:07;;;;;;;16.00;10.27;;;18.80;99.90;;;;;;4995036;28;20043;-47
2023/07/01 06:31:37;;;;;;;14.40;10.05;;;18.80;99.90;;;;;;4991955;28;20430;-44
2023/07/01 06:34:12;;;;;;;14.98;9.23;;;18.90;99.90;;;;;;5003458;28;20093;-43
2023/07/01 06:36:39;;;;;;;15.55;9.10;;;19.00;99.90;;;;;;4993500;28;20096;-45
2023/07/01 06:39:06;;;;;;;12.82;8.80;;;19.10;99.90;;;;;;5004949;28;20113;-44
2023/07/01 06:41:34;;;;;;;13.40;9.45;;;19.30;99.90;;;;;;4990050;28;20097;-44
2023/07/01 06:44:02;;;;;;;11.20;8.27;;;19.30;99.90;;;;;;5003218;28;20046;-45
2023/07/01 06:46:29;;;;;;;11.55;8.45;;;19.30;99.90;;;;;;4989143;28;20227;-43
2023/07/01 06:48:57;;;;;;;13.15;8.85;;;19.30;99.90;;;;;;4989929;28;20077;-46
2023/07/01 06:51:24;;;;;;;10.90;7.95;;;19.30;99.90;;;;;;4997646;28;20070;-43
2023/07/01 06:53:51;;;;;;;10.13;7.30;;;19.30;99.90;;;;;;5053950;22;20045;-38
2023/07/01 06:56:19;;;;;;;11.88;7.70;;;19.40;99.90;;;;;;5013101;28;20044;-40
2023/07/01 06:58:46;;;;;;;9.52;7.18;;;19.50;99.90;;;;;;5012771;28;20112;-39
2023/07/01 07:01:15;;;;;;;10.98;7.38;;;19.60;99.90;;;;;;5006227;28;20411;-39
2023/07/01 07:03:42;;;;;;;10.27;7.63;;;19.70;99.90;;;;;;4992206;28;20042;-39
2023/07/01 07:06:10;;;;;;;10.50;7.05;;;19.80;99.90;;;;;;4990162;28;20403;-39
2023/07/01 07:08:37;;;;;;;11.23;7.10;;;19.90;99.90;;;;;;5002341;28;20058;-40
2023/07/01 07:11:05;;;;;;;8.43;6.57;;;19.70;99.90;;;;;;5004565;28;20050;-42
2023/07/01 07:13:32;;;;;;;9.32;6.68;;;19.80;99.90;;;;;;4992285;28;20085;-40
2023/07/01 07:15:59;;;;;;;9.00;7.05;;;19.80;99.90;;;;;;5003623;28;20112;-37
2023/07/01 07:18:26;;;;;;;10.07;6.72;;;19.90;99.90;;;;;;5003429;28;20034;-42
2023/07/01 07:20:54;;;;;;;8.15;6.20;;;19.90;99.90;;;;;;5012217;28;20053;-39
2023/07/01 07:23:21;;;;;;;8.15;6.70;;;20.00;99.90;;;;;;5020756;28;20088;-40
2023/07/01 07:25:49;;;;;;;8.90;6.47;;;20.10;99.90;;;;;;5018051;28;20046;-40
2023/07/01 07:28:16;;;;;;;9.43;6.15;;;20.20;99.90;;;;;;5019025;28;20050;-38
2023/07/01 07:30:44;;;;;;;6.90;5.85;;;20.30;99.90;;;;;;5009515;28;20505;-40
2023/07/01 07:33:12;;;;;;;7.15;5.50;;;20.40;99.90;;;;;;5020187;28;20133;-39
2023/07/01 07:35:39;;;;;;;6.40;5.22;;;20.50;99.90;;;;;;5008444;28;20038;-40
2023/07/01 07:38:07;;;;;;;7.55;5.75;;;20.50;99.90;;;;;;5014787;28;20046;-37
2023/07/01 07:40:34;;;;;;;8.63;5.75;;;20.40;99.90;;;;;;5007887;28;20062;-40
2023/07/01 07:43:10;;;;;;;9.00;5.50;;;20.50;99.90;;;;;;5008917;28;20060;-41
2023/07/01 07:45:37;;;;;;;6.53;5.40;;;20.50;99.90;;;;;;5010464;28;20049;-40
2023/07/01 07:48:08;;;;;;;7.20;4.95;;;20.60;99.90;;;;;;5012654;28;20474;-38
2023/07/01 07:50:35;;;;;;;7.55;5.10;;;20.70;99.90;;;;;;5010373;28;20045;-40
2023/07/01 07:53:03;;;;;;;7.28;5.32;;;20.70;99.90;;;;;;5013078;28;20483;-38
2023/07/01 07:55:33;;;;;;;5.57;4.93;;;20.70;99.90;;;;;;4993254;28;20057;-41
2023/07/01 07:58:02;;;;;;;10.43;5.13;;;20.70;99.90;;;;;;5015530;28;20108;-40
2023/07/01 08:00:29;;;;;;;6.30;4.85;;;20.80;99.90;;;;;;4987861;28;20078;-40
2023/07/01 08:02:57;;;;;;;6.88;5.43;;;20.80;99.90;;;;;;4997688;28;20073;-38
2023/07/01 08:05:26;;;;;;;4.95;4.38;;;20.80;99.90;;;;;;5008736;28;20060;-40
2023/07/01 08:07:54;;;;;;;5.35;4.80;;;20.90;99.90;;;;;;4994441;28;20070;-40
2023/07/01 08:10:21;;;;;;;6.45;4.72;;;20.90;99.90;;;;;;4992984;28;20042;-40
2023/07/01 08:12:48;;;;;;;6.82;5.18;;;20.90;99.90;;;;;;4994654;28;20372;-40
2023/07/01 08:15:17;;;;;;;8.65;5.30;;;21.00;99.90;;;;;;4994808;28;20046;-40
2023/07/01 08:17:44;;;;;;;7.50;5.43;;;21.10;99.90;;;;;;4995332;28;20050;-39
2023/07/01 08:20:12;;;;;;;7.18;5.20;;;21.20;99.90;;;;;;4994932;28;20054;-38
2023/07/01 08:22:39;;;;;;;7.47;5.50;;;21.30;99.90;;;;;;4995463;28;20046;-40
2023/07/01 08:25:07;;;;;;;6.07;5.15;;;21.40;99.90;;;;;;4995555;28;20201;-39
2023/07/01 08:27:34;;;;;;;7.72;4.97;;;21.30;99.90;;;;;;4994810;28;20515;-40
2023/07/01 08:30:02;;;;;;;6.93;5.53;;;21.50;99.90;;;;;;4995302;28;20050;-40
2023/07/01 08:32:29;;;;;;;7.00;5.07;;;21.60;99.90;;;;;;4987463;28;20042;-41
2023/07/01 08:34:57;;;;;;;7.50;5.30;;;21.80;99.90;;;;;;4994731;28;20050;-39
2023/07/01 08:37:25;;;;;;;6.60;5.53;;;21.90;99.90;;;;;;4994700;28;20194;-40
2023/07/01 08:39:52;;;;;;;6.45;5.18;;;22.00;99.90;;;;;;4995012;28;20077;-39
2023/07/01 08:42:51;;;;;;;5.90;5.20;;;22.10;99.90;;;;;;4994046;28;20399;-42
2023/07/01 08:45:21;;;;;;;5.15;4.65;;;22.30;99.90;;;;;;4989776;28;20057;-38
2023/07/01 08:47:49;;;;;;;5.35;4.80;;;22.50;99.90;;;;;;4997176;28;20061;-40
2023/07/01 08:50:19;;;;;;;6.03;4.75;;;22.60;99.90;;;;;;4996715;28;20145;-40
2023/07/01 08:52:51;;;;;;;7.32;4.65;;;22.60;99.90;;;;;;4996894;28;20050;-38
2023/07/01 08:55:18;;;;;;;5.80;4.40;;;22.30;99.90;;;;;;4995858;28;20121;-38
2023/07/01 08:57:47;;;;;;;7.53;4.97;;;22.50;99.90;;;;;;4997286;28;20054;-42
2023/07/01 09:00:15;;;;;;;6.95;4.70;;;22.70;99.90;;;;;;4999854;28;20105;-41
2023/07/01 09:02:43;;;;;;;5.88;4.97;;;22.90;99.90;;;;;;5001429;28;20049;-40
2023/07/01 09:05:10;;;;;;;6.70;4.72;;;22.90;99.90;;;;;;4999291;28;20053;-41
2023/07/01 09:07:37;;;;;;;5.25;4.75;;;23.20;99.90;;;;;;4999770;28;20034;-40
2023/07/01 09:10:05;;;;;;;7.25;5.15;;;23.10;99.90;;;;;;5000435;28;20053;-38
2023/07/01 09:12:33;;;;;;;5.00;4.40;;;22.70;99.90;;;;;;5001192;28;20049;-42
2023/07/01 09:15:01;;;;;;;5.75;4.45;;;22.80;99.90;;;;;;4997342;28;20047;-41
2023/07/01 09:17:31;;;;;;;5.35;4.85;;;22.70;99.90;;;;;;4988819;28;20129;-41
2023/07/01 09:20:05;;;;;;;8.05;5.00;;;22.80;99.90;;;;;;5002432;28;20042;-44
2023/07/01 09:22:34;;;;;;;5.22;4.72;;;23.00;99.90;;;;;;5011577;28;20046;-41
2023/07/01 09:25:01;;;;;;;7.80;4.82;;;23.00;99.90;;;;;;5006335;28;20050;-46
2023/07/01 09:27:46;;;;;;;5.95;4.97;;;23.00;99.90;;;;;;5021654;28;20097;-43
2023/07/01 09:30:24;;;;;;;6.18;4.80;;;22.80;99.90;;;;;;4999920;28;20046;-39
2023/07/01 09:33:09;;;;;;;5.57;4.70;;;22.80;99.90;;;;;;5000812;28;20052;-40
2023/07/01 09:35:44;;;;;;;6.65;4.45;;;22.80;99.90;;;;;;5006020;28;20038;-40
2023/07/01 09:38:13;;;;;;;7.22;4.70;;;23.00;99.90;;;;;;4998372;28;20061;-42
2023/07/01 09:40:40;;;;;;;5.32;4.38;;;23.10;99.90;;;;;;5017923;28;20092;-41
2023/07/01 09:43:08;;;;;;;7.35;4.80;;;23.00;99.90;;;;;;5009003;28;20041;-40
2023/07/01 09:45:35;;;;;;;6.10;4.70;;;23.00;99.90;;;;;;5012038;28;20116;-39
2023/07/01 09:48:13;;;;;;;6.10;4.78;;;23.10;99.90;;;;;;4990587;28;20518;-40
2023/07/01 09:50:40;;;;;;;8.45;4.93;;;23.50;99.90;;;;;;4983435;28;20046;-42
2023/07/01 09:53:22;;;;;;;5.90;4.47;;;23.70;99.90;;;;;;4988763;28;20089;-41
2023/07/01 09:55:50;;;;;;;5.73;4.73;;;23.50;99.90;;;;;;5003712;28;20054;-38
2023/07/01 09:58:17;;;;;;;6.20;4.63;;;23.50;99.90;;;;;;5003252;28;20108;-38
2023/07/01 10:00:45;;;;;;;5.10;4.57;;;23.40;99.90;;;;;;5010394;28;20080;-40
2023/07/01 10:03:12;;;;;;;8.23;4.70;;;23.60;99.90;;;;;;4989644;28;20053;-38
2023/07/01 10:05:43;;;;;;;5.40;4.82;;;23.90;99.90;;;;;;4983660;28;20038;-39
2023/07/01 10:08:10;;;;;;;5.40;4.88;;;24.00;99.60;;;;;;4985982;28;20066;-41
2023/07/01 10:10:38;;;;;;;5.10;4.60;;;23.70;99.30;;;;;;4990316;28;20128;-39
2023/07/01 10:13:06;;;;;;;8.00;4.75;;;23.50;99.60;;;;;;5007891;28;20388;-39
2023/07/01 10:15:35;;;;;;;5.43;4.40;;;23.50;99.80;;;;;;5015575;28;20037;-42
2023/07/01 10:18:17;;;;;;;5.50;5.00;;;23.90;99.90;;;;;;4994398;28;20062;-39
2023/07/01 10:20:45;;;;;;;5.60;4.70;;;23.90;98.60;;;;;;4999346;28;20052;-38
2023/07/01 10:23:12;;;;;;;7.00;5.97;;;24.10;98.20;;;;;;4994338;28;20047;-36
2023/07/01 10:25:41;;;;;;;5.38;4.88;;;23.90;98.10;;;;;;4998089;28;20076;-42
2023/07/01 10:28:09;;;;;;;6.93;4.95;;;23.90;97.60;;;;;;5000364;28;20065;-41
2023/07/01 10:30:44;;;;;;;6.82;4.88;;;24.00;97.80;;;;;;4998531;28;20579;-41
2023/07/01 10:33:32;;;;;;;9.27;4.57;;;24.30;97.30;;;;;;4996944;28;20058;-42
2023/07/01 10:36:02;;;;;;;5.90;4.47;;;24.50;96.90;;;;;;5002302;28;20061;-46
2023/07/01 10:38:32;;;;;;;5.88;4.78;;;24.30;96.80;;;;;;4994331;28;20573;-46
2023/07/01 10:41:00;;;;;;;5.70;5.10;;;24.10;97.60;;;;;;5008026;28;20104;-47
2023/07/01 10:43:33;;;;;;;5.43;4.93;;;24.10;97.30;;;;;;5001921;28;20045;-49
2023/07/01 10:46:12;;;;;;;5.43;4.80;;;24.00;96.10;;;;;;4994599;28;20125;-47
2023/07/01 10:48:42;;;;;;;7.22;5.10;;;24.10;96.80;;;;;;4986056;28;20038;-46
2023/07/01 10:51:13;;;;;;;7.07;5.50;;;23.90;97.30;;;;;;4994694;28;20042;-44
2023/07/01 10:54:02;;;;;;;7.25;5.10;;;24.00;97.40;;;;;;4993913;28;20066;-47
2023/07/01 10:56:35;;;;;;;5.57;5.03;;;24.40;97.30;;;;;;4993934;28;20411;-47
2023/07/01 10:59:21;;;;;;;5.53;4.90;;;24.40;96.50;;;;;;5005758;28;20066;-46
2023/07/01 11:01:51;;;;;;;7.45;5.40;;;24.50;96.20;;;;;;5005288;28;20045;-45
2023/07/01 11:04:19;;;;;;;8.70;5.38;;;24.10;95.30;;;;;;5000686;28;20049;-47
2023/07/01 11:06:52;;;;;;;7.70;5.40;;;24.20;95.70;;;;;;5003804;28;20120;-45
2023/07/01 11:09:28;;;;;;;6.35;5.60;;;24.60;94.30;;;;;;4989864;28;20047;-45
2023/07/01 11:11:56;;;;;;;7.50;5.22;;;24.80;94.00;;;;;;4993676;28;20073;-45
2023/07/01 11:14:44;;;;;;;6.10;5.07;;;25.00;93.90;;;;;;5000487;28;20053;-46
2023/07/01 11:17:16;;;;;;;5.72;4.97;;;25.20;93.30;;;;;;4996816;28;20050;-46
2023/07/01 11:19:45;;;;;;;6.18;5.57;;;25.30;93.40;;;;;;4996128;28;20054;-47
2023/07/01 11:22:16;;;;;;;11.90;5.90;;;25.30;93.00;;;;;;5003445;28;20042;-47
2023/07/01 11:24:44;;;;;;;8.38;4.95;;;25.10;92.90;;;;;;5009567;28;20050;-43
2023/07/01 11:27:11;;;;;;;5.93;5.20;;;25.30;91.90;;;;;;5005036;28;20100;-44
2023/07/01 11:29:43;;;;;;;6.47;4.95;;;25.70;92.10;;;;;;5010580;28;20045;-47
2023/07/01 11:32:12;;;;;;;7.00;5.45;;;25.80;91.10;;;;;;4998175;28;20047;-42
2023/07/01 11:34:49;;;;;;;8.43;5.35;;;26.00;90.70;;;;;;4979985;28;20415;-43
2023/07/01 11:37:24;;;;;;;5.90;5.30;;;26.30;90.50;;;;;;4997267;28;20045;-45
2023/07/01 11:39:52;;;;;;;6.45;5.13;;;26.60;90.50;;;;;;4983487;28;20654;-43
2023/07/01 11:42:20;;;;;;;6.03;5.30;;;27.00;89.00;;;;;;4988917;28;20042;-42
2023/07/01 11:44:47;;;;;;;9.43;5.95;;;26.90;89.20;;;;;;4994069;28;20430;-42
2023/07/01 11:47:15;;;;;;;7.90;6.15;;;26.60;86.00;;;;;;5005282;28;20045;-43
2023/07/01 11:49:43;;;;;;;7.07;5.57;;;26.60;87.70;;;;;;5000285;28;20046;-42
2023/07/01 11:52:24;;;;;;;6.40;5.38;;;26.50;86.90;;;;;;4973278;28;20132;-43
2023/07/01 11:54:54;;;;;;;5.97;5.03;;;26.60;86.20;;;;;;4988168;28;20078;-42
2023/07/01 11:57:23;;;;;;;8.40;5.75;;;26.60;85.80;;;;;;4999675;28;20054;-40
2023/07/01 11:59:58;;;;;;;6.57;5.65;;;26.50;86.20;;;;;;5009418;28;20108;-44
2023/07/01 12:02:31;;;;;;;6.28;5.38;;;26.80;85.90;;;;;;4987511;28;20042;-42
2023/07/01 12:05:00;;;;;;;8.77;5.97;;;27.10;86.20;;;;;;5009066;28;20042;-43
2023/07/01 12:07:28;;;;;;;7.05;5.30;;;26.90;85.40;;;;;;4988614;28;20052;-42
2023/07/01 12:10:16;;;;;;;7.10;5.60;;;27.20;85.30;;;;;;4971249;28;20058;-46
2023/07/01 12:12:43;;;;;;;6.82;5.45;;;27.20;84.40;;;;;;4992582;28;20069;-43
2023/07/01 12:15:11;;;;;;;6.55;5.85;;;27.40;83.90;;;;;;4985814;28;20125;-42
2023/07/01 12:17:39;;;;;;;6.25;5.65;;;27.60;84.40;;;;;;4998717;28;20085;-41
2023/07/01 12:20:08;;;;;;;7.38;5.88;;;28.40;83.30;;;;;;4989291;28;20042;-47
2023/07/01 12:22:37;;;;;;;7.30;5.85;;;28.20;83.30;;;;;;4993396;28;20046;-45
2023/07/01 12:25:05;;;;;;;7.15;5.80;;;28.00;81.10;;;;;;4990980;28;20069;-41
2023/07/01 12:27:33;;;;;;;6.57;5.57;;;27.50;81.60;;;;;;4989449;28;20054;-43
2023/07/01 12:30:07;;;;;;;7.85;5.90;;;27.60;81.70;;;;;;4986409;28;20511;-44
2023/07/01 12:32:39;;;;;;;7.47;5.95;;;27.40;79.70;;;;;;4995006;28;20407;-43
2023/07/01 12:35:07;;;;;;;7.82;6.13;;;27.20;79.70;;;;;;4969483;28;20125;-41
2023/07/01 12:37:36;;;;;;;7.35;5.60;;;27.00;79.70;;;;;;4987403;28;20405;-42
2023/07/01 12:40:04;;;;;;;6.78;6.07;;;27.20;81.30;;;;;;5000422;28;20050;-44
2023/07/01 12:42:33;;;;;;;6.47;5.63;;;28.10;81.20;;;;;;4997019;28;20046;-42
2023/07/01 12:45:00;;;;;;;6.30;5.70;;;28.80;79.20;;;;;;5005052;28;20042;-42
2023/07/01 12:47:28;;;;;;;10.35;5.40;;;30.00;76.40;;;;;;5006239;28;20046;-41
2023/07/01 12:49:56;;;;;;;6.20;5.60;;;29.90;76.50;;;;;;5006967;28;20132;-40
2023/07/01 12:52:24;;;;;;;8.18;6.00;;;29.90;74.80;;;;;;5020323;22;20062;-49